KPTS/PTS METAR and TAF weather

Enter ICAO airport designator
Station Type Date Time Source
KPTS METAR 2021/01/20 22:15 UTC NOAA

KPTS 202215Z AUTO 20017G25KT 10SM OVC044 07/M03 A3005 RMK AO2 T00661031


Station Type Date Time Source
KPTS Decoded METAR 2021/01/20 22:15 UTC NOAA

Station name not available
Jan 20, 2021 - 05:15 PM EST / 2021.01.20 2215 UTC
Wind: from the SSW (200 degrees) at 20 MPH (17 KT) gusting to 29 MPH (25 KT):0
Visibility: 10 mile(s):0
Sky conditions: overcast
Temperature: 43.9 F (6.6 C)
Dew Point: 26.4 F (-3.1 C)
Relative Humidity: 49%
Pressure (altimeter): 30.05 in. Hg (1017 hPa)
ob: KPTS 202215Z AUTO 20017G25KT 10SM OVC044 07/M03 A3005 RMK AO2 T00661031
cycle: 22

Station Type Date Time Source
KPTS TAF UTC NOAA

Error!

Example: see airport list